Time;durP1;ratioP1;P1;durP2;ratioP2;P2;SDS_P1;SDS_P2;PMS_P1;PMS_P2;Temp;Humidity;BMP_temperature;BMP_pressure;BME280_temperature;BME280_humidity;BME280_pressure;Samples;Min_cycle;Max_cycle;Signal;HPM_P1;HPM_P2
2022/10/21 00:01:36;;;;;;;2.00;1.00;;;;;;;;;;5012191;28;20034;-59
2022/10/21 00:04:02;;;;;;;2.28;1.30;;;;;;;;;;4998483;28;20034;-59
2022/10/21 00:06:28;;;;;;;2.58;1.13;;;;;;;;;;5002712;28;20049;-59
2022/10/21 00:08:53;;;;;;;3.10;1.10;;;;;;;;;;5008765;28;20048;-59
2022/10/21 00:11:19;;;;;;;2.22;1.10;;;;;;;;;;5009577;28;20492;-59
2022/10/21 00:13:44;;;;;;;2.45;1.45;;;;;;;;;;5013222;28;20038;-59
2022/10/21 00:16:12;;;;;;;2.08;1.17;;;;;;;;;;5013519;28;20054;-58
2022/10/21 00:18:39;;;;;;;2.65;1.20;;;;;;;;;;5024926;28;20049;-60
2022/10/21 00:21:11;;;;;;;2.15;1.10;;;;;;;;;;5012291;28;20041;-58
2022/10/21 00:23:36;;;;;;;2.40;1.30;;;;;;;;;;5027598;28;20433;-59
2022/10/21 00:26:03;;;;;;;2.20;1.17;;;;;;;;;;5010426;28;20038;-59
2022/10/21 00:28:28;;;;;;;2.50;1.10;;;;;;;;;;5010010;28;20045;-59
2022/10/21 00:30:54;;;;;;;2.35;1.30;;;;;;;;;;5013169;28;20480;-59
2022/10/21 00:33:19;;;;;;;3.25;1.42;;;;;;;;;;5013066;28;20033;-60
2022/10/21 00:35:53;;;;;;;2.20;1.20;;;;;;;;;;5011478;28;20481;-59
2022/10/21 00:38:18;;;;;;;2.65;1.20;;;;;;;;;;4994740;28;20042;-59
2022/10/21 00:40:44;;;;;;;1.88;1.00;;;;;;;;;;5000657;28;20043;-59
2022/10/21 00:43:10;;;;;;;2.78;1.20;;;;;;;;;;5001867;28;20042;-58
2022/10/21 00:45:36;;;;;;;2.30;1.20;;;;;;;;;;5002418;28;20053;-59
2022/10/21 00:48:18;;;;;;;2.47;1.25;;;;;;;;;;5009669;28;20030;-59
2022/10/21 00:50:55;;;;;;;2.25;1.10;;;;;;;;;;5017474;28;20100;-59
2022/10/21 00:53:21;;;;;;;2.30;1.38;;;;;;;;;;5013322;28;20034;-59
2022/10/21 00:55:52;;;;;;;2.22;1.15;;;;;;;;;;5015305;28;20044;-58
2022/10/21 00:58:20;;;;;;;2.00;1.10;;;;;;;;;;5012668;28;20037;-60
2022/10/21 01:00:45;;;;;;;2.10;1.15;;;;;;;;;;5005929;28;20038;-59
2022/10/21 01:03:11;;;;;;;2.97;1.40;;;;;;;;;;5014616;28;20041;-59
2022/10/21 01:05:38;;;;;;;2.85;1.38;;;;;;;;;;5016432;28;20616;-59
2022/10/21 01:08:03;;;;;;;2.20;1.00;;;;;;;;;;5015216;28;20504;-59
2022/10/21 01:10:29;;;;;;;3.40;1.23;;;;;;;;;;5016181;28;20033;-59
2022/10/21 01:13:25;;;;;;;3.58;1.30;;;;;;;;;;5012685;28;20370;-59
2022/10/21 01:16:02;;;;;;;2.45;1.10;;;;;;;;;;5014546;28;20034;-59
2022/10/21 01:18:55;;;;;;;2.00;1.25;;;;;;;;;;5018022;28;20536;-59
2022/10/21 01:21:30;;;;;;;1.75;1.02;;;;;;;;;;5014546;28;20076;-59
2022/10/21 01:24:13;;;;;;;2.70;1.30;;;;;;;;;;5016142;28;20059;-59
2022/10/21 01:26:51;;;;;;;2.92;1.45;;;;;;;;;;5015904;28;20049;-59
2022/10/21 01:29:52;;;;;;;2.55;1.50;;;;;;;;;;4998372;28;20121;-60
2022/10/21 01:32:23;;;;;;;1.70;1.00;;;;;;;;;;5011117;28;20112;-60
2022/10/21 01:34:55;;;;;;;1.80;1.10;;;;;;;;;;5015787;28;20045;-60
2022/10/21 01:37:34;;;;;;;2.75;1.30;;;;;;;;;;5015810;28;20108;-59
2022/10/21 01:40:24;;;;;;;2.38;1.05;;;;;;;;;;5003984;28;20111;-59
2022/10/21 01:42:59;;;;;;;2.15;1.00;;;;;;;;;;5014697;28;20497;-60
2022/10/21 01:45:41;;;;;;;2.75;1.10;;;;;;;;;;5014517;28;20033;-59
2022/10/21 01:48:09;;;;;;;2.25;1.05;;;;;;;;;;5015096;28;20068;-59
2022/10/21 01:51:02;;;;;;;1.92;1.10;;;;;;;;;;5006039;28;20026;-59
2022/10/21 01:53:40;;;;;;;5.13;1.30;;;;;;;;;;5003957;28;20505;-59
2022/10/21 01:56:07;;;;;;;2.58;1.10;;;;;;;;;;5000828;28;20133;-59
2022/10/21 01:58:35;;;;;;;2.22;1.17;;;;;;;;;;5008873;28;20046;-60
2022/10/21 02:01:02;;;;;;;1.98;1.10;;;;;;;;;;5012384;28;20488;-58
2022/10/21 02:03:31;;;;;;;1.85;1.00;;;;;;;;;;5015348;28;20038;-59
2022/10/21 02:05:56;;;;;;;1.70;1.10;;;;;;;;;;5014999;28;20041;-59
2022/10/21 02:08:22;;;;;;;2.50;1.20;;;;;;;;;;5014010;28;20045;-59
2022/10/21 02:10:50;;;;;;;3.15;1.00;;;;;;;;;;5009086;28;20049;-59
2022/10/21 02:13:25;;;;;;;2.33;1.30;;;;;;;;;;5013909;28;20037;-59
2022/10/21 02:15:55;;;;;;;1.50;0.80;;;;;;;;;;5013706;28;20466;-58
2022/10/21 02:18:23;;;;;;;1.92;1.00;;;;;;;;;;5013722;28;20041;-59
2022/10/21 02:20:58;;;;;;;1.92;1.00;;;;;;;;;;5013743;28;20065;-59
2022/10/21 02:23:38;;;;;;;1.52;0.90;;;;;;;;;;5013813;28;20046;-59
2022/10/21 02:26:03;;;;;;;2.20;1.10;;;;;;;;;;5014904;28;20041;-60
2022/10/21 02:28:29;;;;;;;1.80;1.00;;;;;;;;;;5013860;28;20037;-59
2022/10/21 02:31:11;;;;;;;2.35;1.10;;;;;;;;;;5014625;28;20112;-59
2022/10/21 02:34:26;;;;;;;2.30;1.10;;;;;;;;;;5014813;28;20137;-60
2022/10/21 02:36:57;;;;;;;2.60;1.10;;;;;;;;;;5006483;28;20050;-60
2022/10/21 02:39:31;;;;;;;2.30;1.05;;;;;;;;;;5014655;28;20048;-59
2022/10/21 02:41:57;;;;;;;1.63;1.00;;;;;;;;;;5013446;28;20041;-59
2022/10/21 02:44:23;;;;;;;3.63;1.10;;;;;;;;;;5013365;28;20052;-59
2022/10/21 02:46:49;;;;;;;2.00;1.10;;;;;;;;;;5014423;28;20121;-59
2022/10/21 02:49:14;;;;;;;3.00;1.23;;;;;;;;;;5014482;28;20021;-60
2022/10/21 02:51:40;;;;;;;2.13;1.10;;;;;;;;;;5014339;28;20041;-60
2022/10/21 02:54:06;;;;;;;2.15;1.15;;;;;;;;;;5014793;28;20432;-58
2022/10/21 02:56:31;;;;;;;1.90;1.00;;;;;;;;;;5005846;28;20034;-60
2022/10/21 02:58:56;;;;;;;1.70;0.90;;;;;;;;;;5001149;28;20042;-58
2022/10/21 03:01:22;;;;;;;7.35;1.40;;;;;;;;;;5007473;28;20030;-59
2022/10/21 03:03:47;;;;;;;2.17;1.00;;;;;;;;;;5010006;28;20034;-59
2022/10/21 03:06:13;;;;;;;1.70;0.90;;;;;;;;;;5014277;28;20513;-59
2022/10/21 03:08:38;;;;;;;2.10;1.05;;;;;;;;;;5014033;28;20048;-59
2022/10/21 03:11:04;;;;;;;2.15;1.00;;;;;;;;;;5012161;28;20032;-59
2022/10/21 03:13:29;;;;;;;2.00;1.08;;;;;;;;;;5001306;28;20038;-59
2022/10/21 03:15:54;;;;;;;3.47;1.30;;;;;;;;;;5004008;28;20050;-58
2022/10/21 03:18:20;;;;;;;2.53;1.13;;;;;;;;;;4996189;28;20069;-60
2022/10/21 03:20:49;;;;;;;2.20;1.10;;;;;;;;;;5000984;28;20057;-59
2022/10/21 03:23:16;;;;;;;2.90;1.10;;;;;;;;;;5006001;28;20038;-61
2022/10/21 03:25:42;;;;;;;1.90;1.00;;;;;;;;;;5009517;28;20030;-57
2022/10/21 03:28:08;;;;;;;3.53;1.10;;;;;;;;;;5013565;28;20393;-59
2022/10/21 03:30:33;;;;;;;2.97;1.13;;;;;;;;;;5013525;28;20084;-59
2022/10/21 03:32:59;;;;;;;1.40;0.82;;;;;;;;;;5003172;28;20034;-59
2022/10/21 03:35:25;;;;;;;1.88;1.02;;;;;;;;;;4995007;28;20046;-59
2022/10/21 03:37:51;;;;;;;1.98;0.95;;;;;;;;;;4995733;28;20121;-59
2022/10/21 03:40:16;;;;;;;2.10;1.00;;;;;;;;;;5009441;28;20064;-59
2022/10/21 03:42:42;;;;;;;2.40;1.00;;;;;;;;;;5013661;28;20461;-59
2022/10/21 03:45:08;;;;;;;2.35;1.13;;;;;;;;;;5013457;28;20484;-59
2022/10/21 03:47:33;;;;;;;1.98;1.10;;;;;;;;;;5013586;28;20120;-58
2022/10/21 03:49:58;;;;;;;2.80;1.50;;;;;;;;;;4995830;28;20363;-59
2022/10/21 03:52:24;;;;;;;2.17;1.00;;;;;;;;;;5000158;28;20081;-60
2022/10/21 03:54:49;;;;;;;1.92;1.05;;;;;;;;;;5001783;28;20035;-59
2022/10/21 03:57:14;;;;;;;2.22;1.00;;;;;;;;;;5011779;28;20065;-59
2022/10/21 03:59:40;;;;;;;1.80;0.90;;;;;;;;;;5003887;28;20126;-59
2022/10/21 04:02:05;;;;;;;2.20;1.10;;;;;;;;;;5000205;28;20039;-59
2022/10/21 04:04:31;;;;;;;2.05;1.05;;;;;;;;;;4999479;28;20034;-59
2022/10/21 04:06:56;;;;;;;1.90;1.10;;;;;;;;;;5013551;28;20103;-58
2022/10/21 04:09:21;;;;;;;3.47;0.95;;;;;;;;;;5013229;28;20025;-61
2022/10/21 04:11:47;;;;;;;1.73;0.90;;;;;;;;;;5008041;28;20046;-59
2022/10/21 04:14:12;;;;;;;1.83;1.00;;;;;;;;;;5006735;28;20034;-59
2022/10/21 04:16:38;;;;;;;4.28;1.88;;;;;;;;;;4999928;28;20137;-58
2022/10/21 04:19:03;;;;;;;2.10;1.00;;;;;;;;;;5005605;28;20528;-59
2022/10/21 04:21:28;;;;;;;2.60;1.08;;;;;;;;;;4997587;28;20105;-59
2022/10/21 04:23:54;;;;;;;1.88;1.00;;;;;;;;;;4995816;28;20026;-59
2022/10/21 04:26:19;;;;;;;2.00;1.00;;;;;;;;;;5008330;28;20034;-59
2022/10/21 04:28:44;;;;;;;1.75;0.85;;;;;;;;;;5004010;28;20375;-59
2022/10/21 04:31:10;;;;;;;3.70;1.27;;;;;;;;;;5012413;28;20069;-61
2022/10/21 04:33:35;;;;;;;2.10;1.10;;;;;;;;;;5009287;28;20120;-58
2022/10/21 04:36:01;;;;;;;1.95;1.10;;;;;;;;;;5014521;28;20062;-59
2022/10/21 04:38:26;;;;;;;2.10;1.10;;;;;;;;;;5015243;28;20030;-57
2022/10/21 04:41:00;;;;;;;1.70;0.77;;;;;;;;;;5014686;28;20060;-59
2022/10/21 04:43:26;;;;;;;1.48;0.82;;;;;;;;;;5017236;28;20042;-60
2022/10/21 04:45:51;;;;;;;2.30;1.10;;;;;;;;;;5016506;28;20053;-59
2022/10/21 04:48:17;;;;;;;1.77;1.00;;;;;;;;;;5016757;28;20049;-58
2022/10/21 04:50:43;;;;;;;1.60;0.90;;;;;;;;;;5016839;28;20385;-59
2022/10/21 04:53:08;;;;;;;2.20;1.08;;;;;;;;;;5016649;28;20389;-59
2022/10/21 04:55:33;;;;;;;1.65;0.93;;;;;;;;;;5000206;28;20034;-59
2022/10/21 04:57:59;;;;;;;1.60;0.82;;;;;;;;;;5005974;28;20104;-58
2022/10/21 05:00:24;;;;;;;1.98;0.90;;;;;;;;;;5016469;28;20480;-59
2022/10/21 05:02:49;;;;;;;1.90;0.90;;;;;;;;;;5016460;28;20034;-59
2022/10/21 05:05:15;;;;;;;1.58;0.90;;;;;;;;;;5016662;28;20370;-59
2022/10/21 05:07:40;;;;;;;2.97;1.10;;;;;;;;;;5016187;28;20050;-59
2022/10/21 05:10:06;;;;;;;1.77;1.00;;;;;;;;;;5015044;28;20422;-59
2022/10/21 05:12:32;;;;;;;1.95;1.00;;;;;;;;;;5015964;28;20141;-60
2022/10/21 05:14:59;;;;;;;1.60;0.90;;;;;;;;;;5016403;28;20073;-58
2022/10/21 05:17:25;;;;;;;1.73;0.90;;;;;;;;;;5016066;28;20045;-59
2022/10/21 05:19:50;;;;;;;1.38;0.80;;;;;;;;;;5001857;28;20034;-59
2022/10/21 05:22:15;;;;;;;1.90;1.00;;;;;;;;;;5015921;28;20509;-59
2022/10/21 05:24:41;;;;;;;1.60;0.80;;;;;;;;;;4997053;28;20034;-59
2022/10/21 05:27:06;;;;;;;1.58;0.90;;;;;;;;;;5001626;28;20398;-60
2022/10/21 05:29:31;;;;;;;1.38;0.80;;;;;;;;;;5000546;28;20164;-59
2022/10/21 05:31:57;;;;;;;1.85;0.95;;;;;;;;;;5004491;28;20675;-59
2022/10/21 05:34:22;;;;;;;1.80;1.10;;;;;;;;;;5004325;28;20109;-59
2022/10/21 05:36:48;;;;;;;1.10;0.70;;;;;;;;;;5009322;28;20033;-59
2022/10/21 05:39:13;;;;;;;1.75;0.90;;;;;;;;;;5011396;28;20041;-59
2022/10/21 05:41:39;;;;;;;1.42;0.82;;;;;;;;;;5011035;28;20088;-60
2022/10/21 05:44:04;;;;;;;1.98;1.10;;;;;;;;;;5015912;28;20044;-59
2022/10/21 05:46:30;;;;;;;1.38;0.80;;;;;;;;;;5015557;28;20049;-59
2022/10/21 05:48:55;;;;;;;1.60;0.80;;;;;;;;;;5015762;28;20080;-59
2022/10/21 05:51:25;;;;;;;1.98;0.90;;;;;;;;;;5015388;28;20036;-60
2022/10/21 05:53:53;;;;;;;2.10;1.00;;;;;;;;;;5014605;28;20046;-59
2022/10/21 05:56:19;;;;;;;1.88;1.00;;;;;;;;;;5012208;28;20037;-59
2022/10/21 05:58:44;;;;;;;2.17;0.90;;;;;;;;;;4996379;28;20038;-58
2022/10/21 06:01:10;;;;;;;1.27;0.80;;;;;;;;;;5018978;28;20053;-59
2022/10/21 06:03:35;;;;;;;2.33;1.00;;;;;;;;;;5017108;28;20472;-61
2022/10/21 06:06:03;;;;;;;1.67;0.90;;;;;;;;;;5023576;28;20133;-59
2022/10/21 06:08:30;;;;;;;1.70;1.00;;;;;;;;;;5018590;28;20040;-59
2022/10/21 06:11:00;;;;;;;1.50;0.80;;;;;;;;;;5018374;28;20034;-58
2022/10/21 06:13:26;;;;;;;2.25;1.02;;;;;;;;;;5013710;28;20087;-59
2022/10/21 06:15:51;;;;;;;1.45;0.77;;;;;;;;;;5016161;28;20037;-59
2022/10/21 06:18:17;;;;;;;2.13;0.90;;;;;;;;;;5025134;28;20428;-59
2022/10/21 06:20:42;;;;;;;1.70;0.90;;;;;;;;;;5020103;28;20040;-60
2022/10/21 06:23:07;;;;;;;1.90;0.90;;;;;;;;;;5016878;28;20038;-58
2022/10/21 06:25:33;;;;;;;1.42;0.80;;;;;;;;;;5014662;28;20485;-58
2022/10/21 06:27:58;;;;;;;1.10;0.70;;;;;;;;;;5028646;28;20107;-58
2022/10/21 06:30:23;;;;;;;1.70;0.90;;;;;;;;;;5014738;28;20141;-59
2022/10/21 06:32:49;;;;;;;1.52;0.75;;;;;;;;;;5014804;28;20034;-60
2022/10/21 06:35:15;;;;;;;1.80;0.90;;;;;;;;;;5002148;28;20115;-59
2022/10/21 06:37:40;;;;;;;2.55;0.88;;;;;;;;;;5009052;28;20069;-59
2022/10/21 06:40:06;;;;;;;1.55;0.80;;;;;;;;;;4996806;28;20406;-58
2022/10/21 06:42:31;;;;;;;1.80;0.85;;;;;;;;;;5007319;28;20037;-60
2022/10/21 06:44:57;;;;;;;1.50;0.75;;;;;;;;;;5014500;28;20038;-61
2022/10/21 06:47:22;;;;;;;1.40;0.85;;;;;;;;;;5024200;28;20033;-60
2022/10/21 06:49:48;;;;;;;2.80;0.80;;;;;;;;;;5017113;28;20112;-57
2022/10/21 06:52:13;;;;;;;1.80;0.95;;;;;;;;;;5012517;28;20033;-57
2022/10/21 06:54:38;;;;;;;2.42;1.00;;;;;;;;;;5018801;28;20068;-58
2022/10/21 06:57:04;;;;;;;4.35;0.95;;;;;;;;;;5028938;28;20067;-57
2022/10/21 06:59:29;;;;;;;1.60;0.90;;;;;;;;;;5012175;28;20030;-59
2022/10/21 07:01:55;;;;;;;2.50;0.90;;;;;;;;;;5014313;28;20080;-58
2022/10/21 07:04:20;;;;;;;1.90;1.10;;;;;;;;;;5010633;28;20041;-58
2022/10/21 07:06:46;;;;;;;2.55;0.90;;;;;;;;;;5014171;28;20545;-57
2022/10/21 07:09:11;;;;;;;3.35;1.15;;;;;;;;;;5007157;28;20122;-58
2022/10/21 07:11:37;;;;;;;2.63;1.10;;;;;;;;;;5014072;28;20504;-57
2022/10/21 07:14:02;;;;;;;2.20;1.00;;;;;;;;;;5014042;28;20128;-58
2022/10/21 07:16:33;;;;;;;3.47;0.90;;;;;;;;;;5012888;28;20041;-58
2022/10/21 07:18:59;;;;;;;2.03;0.93;;;;;;;;;;5012799;28;20041;-56
2022/10/21 07:21:27;;;;;;;3.65;0.90;;;;;;;;;;5013029;28;20030;-58
2022/10/21 07:23:53;;;;;;;1.88;0.93;;;;;;;;;;5013474;28;20045;-58
2022/10/21 07:26:20;;;;;;;3.35;1.10;;;;;;;;;;5012656;28;20034;-57
2022/10/21 07:28:46;;;;;;;1.73;0.80;;;;;;;;;;5013816;28;20045;-57
2022/10/21 07:31:19;;;;;;;1.83;1.00;;;;;;;;;;5012561;28;20046;-57
2022/10/21 07:33:45;;;;;;;4.65;1.00;;;;;;;;;;5011340;28;20045;-57
2022/10/21 07:36:17;;;;;;;1.75;1.00;;;;;;;;;;5014131;28;20038;-57
2022/10/21 07:38:45;;;;;;;2.22;0.80;;;;;;;;;;5013181;28;20043;-57
2022/10/21 07:41:22;;;;;;;4.03;1.40;;;;;;;;;;5004763;28;20545;-62
2022/10/21 07:43:48;;;;;;;2.20;0.93;;;;;;;;;;4998291;28;20053;-59
2022/10/21 07:46:14;;;;;;;2.22;1.00;;;;;;;;;;5029916;28;20037;-60
2022/10/21 07:48:40;;;;;;;11.77;2.60;;;;;;;;;;5012178;28;20473;-57
2022/10/21 07:51:08;;;;;;;1.67;0.80;;;;;;;;;;5007350;28;20045;-58
2022/10/21 07:53:33;;;;;;;6.13;0.90;;;;;;;;;;5004282;28;20489;-57
2022/10/21 07:56:14;;;;;;;4.03;1.10;;;;;;;;;;5011368;28;20034;-57
2022/10/21 07:58:41;;;;;;;8.35;1.20;;;;;;;;;;5010060;28;20049;-58
2022/10/21 08:01:08;;;;;;;1.80;1.00;;;;;;;;;;5009285;28;20030;-59
2022/10/21 08:03:33;;;;;;;4.70;1.00;;;;;;;;;;4991176;28;20622;-59
2022/10/21 08:05:59;;;;;;;3.28;0.90;;;;;;;;;;5003908;28;20108;-60
2022/10/21 08:08:26;;;;;;;1.55;0.93;;;;;;;;;;5009111;28;20126;-60
2022/10/21 08:10:53;;;;;;;3.75;1.45;;;;;;;;;;4998135;28;20033;-60
2022/10/21 08:13:18;;;;;;;4.97;1.00;;;;;;;;;;5008831;28;20034;-61
2022/10/21 08:15:48;;;;;;;3.47;0.98;;;;;;;;;;5004402;28;20045;-58
2022/10/21 08:18:14;;;;;;;8.00;1.52;;;;;;;;;;4996840;28;20030;-60
2022/10/21 08:20:42;;;;;;;6.68;1.73;;;;;;;;;;5008950;28;20112;-59
2022/10/21 08:23:07;;;;;;;5.93;1.20;;;;;;;;;;5004931;28;20104;-61
2022/10/21 08:25:34;;;;;;;5.55;1.38;;;;;;;;;;5002154;28;20037;-59
2022/10/21 08:27:59;;;;;;;3.95;1.17;;;;;;;;;;5008026;28;20040;-59
2022/10/21 08:30:30;;;;;;;4.35;1.08;;;;;;;;;;4999369;28;20473;-60
2022/10/21 08:32:59;;;;;;;4.38;1.42;;;;;;;;;;5008080;28;20414;-59
2022/10/21 08:35:28;;;;;;;3.47;1.75;;;;;;;;;;4995146;28;20046;-59
2022/10/21 08:37:54;;;;;;;2.05;1.05;;;;;;;;;;5009154;28;20069;-61
2022/10/21 08:40:20;;;;;;;1.77;0.80;;;;;;;;;;5007835;28;20123;-61
2022/10/21 08:42:46;;;;;;;4.80;1.40;;;;;;;;;;5005914;28;20046;-58
2022/10/21 08:45:38;;;;;;;2.90;1.10;;;;;;;;;;4997014;28;20038;-59
2022/10/21 08:48:06;;;;;;;4.00;1.00;;;;;;;;;;5024906;28;20119;-63
2022/10/21 08:50:47;;;;;;;7.57;1.10;;;;;;;;;;5008370;28;20429;-60
2022/10/21 08:53:31;;;;;;;2.20;1.10;;;;;;;;;;5007669;28;20516;-59
2022/10/21 08:56:03;;;;;;;4.60;1.35;;;;;;;;;;5008003;28;20046;-58
2022/10/21 08:58:28;;;;;;;9.20;1.30;;;;;;;;;;5008828;28;20093;-61
2022/10/21 09:01:08;;;;;;;4.18;1.38;;;;;;;;;;5009495;28;20104;-60
2022/10/21 09:03:57;;;;;;;4.38;1.13;;;;;;;;;;5009046;28;20124;-60
2022/10/21 09:06:29;;;;;;;3.80;1.20;;;;;;;;;;5008951;28;20068;-59
2022/10/21 09:08:58;;;;;;;4.28;1.30;;;;;;;;;;5001565;28;20046;-60
2022/10/21 09:11:42;;;;;;;3.92;1.40;;;;;;;;;;5010582;28;20481;-59
2022/10/21 09:14:19;;;;;;;6.80;1.30;;;;;;;;;;5012705;28;20046;-59
2022/10/21 09:17:07;;;;;;;3.35;1.27;;;;;;;;;;4996580;28;20120;-59
2022/10/21 09:19:57;;;;;;;3.05;1.10;;;;;;;;;;4998185;28;20088;-59
2022/10/21 09:22:50;;;;;;;2.25;0.90;;;;;;;;;;4998913;28;20035;-59
2022/10/21 09:25:23;;;;;;;2.90;1.20;;;;;;;;;;5027856;28;20052;-59
2022/10/21 09:27:49;;;;;;;2.85;1.25;;;;;;;;;;5010395;28;20125;-59
2022/10/21 09:30:20;;;;;;;3.55;1.35;;;;;;;;;;5010277;28;20045;-59
2022/10/21 09:32:49;;;;;;;2.55;1.08;;;;;;;;;;5011593;28;20044;-58
2022/10/21 09:35:41;;;;;;;3.22;1.30;;;;;;;;;;5011634;28;20033;-59
2022/10/21 09:38:15;;;;;;;2.70;1.25;;;;;;;;;;5003858;28;20030;-58
2022/10/21 09:40:42;;;;;;;4.13;1.20;;;;;;;;;;5005380;28;20124;-60
2022/10/21 09:43:15;;;;;;;3.17;1.00;;;;;;;;;;5005238;28;20042;-59
2022/10/21 09:45:43;;;;;;;3.13;1.17;;;;;;;;;;5008106;28;20037;-59
2022/10/21 09:48:21;;;;;;;6.05;1.30;;;;;;;;;;5010917;28;20048;-61
2022/10/21 09:50:53;;;;;;;7.35;1.45;;;;;;;;;;5012878;28;20089;-60
2022/10/21 09:53:25;;;;;;;24.85;2.35;;;;;;;;;;4994477;28;20496;-60
2022/10/21 09:55:57;;;;;;;7.88;1.65;;;;;;;;;;4975508;28;20465;-60
2022/10/21 09:58:27;;;;;;;2.47;1.00;;;;;;;;;;4994678;28;20038;-59
2022/10/21 10:00:53;;;;;;;3.08;1.10;;;;;;;;;;5003208;28;20041;-60
2022/10/21 10:03:48;;;;;;;4.28;0.95;;;;;;;;;;5011756;28;20042;-60
2022/10/21 10:06:36;;;;;;;2.85;1.05;;;;;;;;;;4995763;28;20045;-60
2022/10/21 10:09:13;;;;;;;5.00;1.30;;;;;;;;;;5011841;28;20037;-60
2022/10/21 10:12:08;;;;;;;4.85;1.17;;;;;;;;;;4997861;28;20100;-60
2022/10/21 10:14:34;;;;;;;2.00;0.82;;;;;;;;;;4999607;28;20046;-59
2022/10/21 10:17:30;;;;;;;3.78;1.20;;;;;;;;;;5004342;28;20057;-59
2022/10/21 10:20:11;;;;;;;5.85;1.00;;;;;;;;;;5001694;28;20038;-60
2022/10/21 10:22:40;;;;;;;5.43;1.20;;;;;;;;;;4994676;28;20069;-60
2022/10/21 10:25:21;;;;;;;3.75;1.30;;;;;;;;;;4995283;28;20042;-61
2022/10/21 10:27:48;;;;;;;3.53;1.15;;;;;;;;;;5008349;28;20371;-60
2022/10/21 10:30:15;;;;;;;3.38;1.15;;;;;;;;;;5012352;28;20041;-60
2022/10/21 10:32:40;;;;;;;5.75;1.40;;;;;;;;;;5011432;28;20393;-59
2022/10/21 10:35:35;;;;;;;4.00;1.10;;;;;;;;;;4995602;28;20035;-59
2022/10/21 10:38:01;;;;;;;4.65;1.25;;;;;;;;;;5008161;28;20045;-60
2022/10/21 10:40:33;;;;;;;3.75;1.40;;;;;;;;;;5009308;28;20417;-59
2022/10/21 10:43:05;;;;;;;3.25;1.30;;;;;;;;;;5010949;28;20042;-59
2022/10/21 10:45:31;;;;;;;2.67;1.23;;;;;;;;;;5009026;28;20045;-61
2022/10/21 10:48:02;;;;;;;2.28;1.00;;;;;;;;;;5009571;28;20038;-60
2022/10/21 10:50:37;;;;;;;3.45;1.23;;;;;;;;;;5011217;28;20030;-59
2022/10/21 10:53:22;;;;;;;3.30;1.10;;;;;;;;;;5010931;28;20041;-60
2022/10/21 10:55:52;;;;;;;2.03;1.00;;;;;;;;;;5006951;28;20242;-60
2022/10/21 10:58:18;;;;;;;3.85;1.25;;;;;;;;;;4999478;28;20042;-60
2022/10/21 11:00:46;;;;;;;3.95;1.30;;;;;;;;;;5009349;28;20041;-60
2022/10/21 11:03:16;;;;;;;7.60;1.20;;;;;;;;;;5009680;28;20026;-59
2022/10/21 11:05:43;;;;;;;6.03;1.08;;;;;;;;;;5006844;28;20062;-59
2022/10/21 11:08:26;;;;;;;3.15;0.88;;;;;;;;;;5008906;28;20052;-60
2022/10/21 11:11:00;;;;;;;5.75;1.30;;;;;;;;;;5009172;28;20077;-60
2022/10/21 11:13:27;;;;;;;2.17;0.95;;;;;;;;;;5000792;28;20061;-59
2022/10/21 11:16:11;;;;;;;3.10;1.20;;;;;;;;;;4997005;28;20056;-60
2022/10/21 11:18:43;;;;;;;3.10;1.20;;;;;;;;;;5004431;28;20108;-61
2022/10/21 11:21:13;;;;;;;2.73;1.00;;;;;;;;;;5009209;28;20374;-61
2022/10/21 11:24:15;;;;;;;2.53;0.90;;;;;;;;;;5009790;28;20508;-61
2022/10/21 11:27:01;;;;;;;3.45;1.20;;;;;;;;;;5000238;28;20151;-61
2022/10/21 11:29:32;;;;;;;2.85;1.05;;;;;;;;;;5005706;28;20382;-61
2022/10/21 11:32:43;;;;;;;2.17;1.02;;;;;;;;;;5009456;28;20045;-60
2022/10/21 11:35:33;;;;;;;7.28;1.20;;;;;;;;;;5000960;28;20133;-61
2022/10/21 11:38:25;;;;;;;5.97;1.33;;;;;;;;;;5003124;28;20041;-61
2022/10/21 11:41:25;;;;;;;2.83;1.00;;;;;;;;;;4999180;28;20077;-61
2022/10/21 11:44:02;;;;;;;2.50;0.93;;;;;;;;;;5001725;28;20034;-61
2022/10/21 11:46:44;;;;;;;9.75;1.35;;;;;;;;;;5018568;28;20031;-67
2022/10/21 11:49:25;;;;;;;2.50;1.02;;;;;;;;;;4991448;28;20046;-64
2022/10/21 11:52:06;;;;;;;3.85;1.33;;;;;;;;;;4995148;28;20512;-62
2022/10/21 11:54:52;;;;;;;4.53;1.20;;;;;;;;;;4998871;28;20022;-61
2022/10/21 11:57:31;;;;;;;10.68;1.35;;;;;;;;;;5004775;28;20050;-61
2022/10/21 12:00:05;;;;;;;3.15;1.25;;;;;;;;;;5006764;28;20549;-62
2022/10/21 12:02:41;;;;;;;6.97;1.17;;;;;;;;;;5009403;28;20064;-61
2022/10/21 12:05:30;;;;;;;2.67;1.00;;;;;;;;;;5003573;28;20037;-61
2022/10/21 12:08:11;;;;;;;1.60;0.85;;;;;;;;;;5008945;28;20057;-61
2022/10/21 12:10:52;;;;;;;10.93;1.67;;;;;;;;;;5014233;28;20385;-61
2022/10/21 12:13:25;;;;;;;8.32;1.13;;;;;;;;;;5006900;28;20049;-60
2022/10/21 12:15:53;;;;;;;;;;;;;;;;;;5018030;28;20054;-63
2022/10/21 12:18:21;;;;;;;5.60;1.08;;;;;;;;;;5007854;28;19925;-58
2022/10/21 12:20:48;;;;;;;4.95;1.50;;;;;;;;;;5011350;28;20041;-58
2022/10/21 12:23:17;;;;;;;43.33;18.02;;;;;;;;;;5009340;28;20037;-59
2022/10/21 12:25:47;;;;;;;30.50;12.50;;;;;;;;;;5011047;28;20062;-59
2022/10/21 12:28:33;;;;;;;36.55;12.88;;;;;;;;;;5008805;28;20049;-60
2022/10/21 12:31:13;;;;;;;32.17;10.45;;;;;;;;;;5018237;28;20053;-60
2022/10/21 12:33:46;;;;;;;26.77;9.57;;;;;;;;;;5009208;28;20412;-65
2022/10/21 12:36:27;;;;;;;27.33;9.25;;;;;;;;;;5012056;28;20453;-64
2022/10/21 12:38:58;;;;;;;22.40;8.93;;;;;;;;;;5001716;28;20477;-59
2022/10/21 12:41:23;;;;;;;11.68;4.55;;;;;;;;;;5011058;28;20396;-58
2022/10/21 12:43:59;;;;;;;12.07;4.50;;;;;;;;;;4993535;28;20109;-59
2022/10/21 12:46:28;;;;;;;13.63;4.32;;;;;;;;;;5009237;28;20120;-58
2022/10/21 12:48:54;;;;;;;11.40;4.53;;;;;;;;;;5012749;28;20044;-59
2022/10/21 12:51:25;;;;;;;10.75;3.45;;;;;;;;;;5012220;28;20050;-59
2022/10/21 12:53:55;;;;;;;15.52;4.07;;;;;;;;;;4995672;28;20088;-60
2022/10/21 12:56:37;;;;;;;11.02;3.50;;;;;;;;;;5007967;28;20033;-61
2022/10/21 12:59:05;;;;;;;8.80;3.25;;;;;;;;;;5003757;28;20133;-59
2022/10/21 13:01:37;;;;;;;7.40;2.53;;;;;;;;;;5008123;28;20038;-60
2022/10/21 13:04:04;;;;;;;7.65;2.33;;;;;;;;;;5006844;28;20048;-65
2022/10/21 13:06:55;;;;;;;7.07;2.38;;;;;;;;;;5001185;28;20045;-59
2022/10/21 13:09:32;;;;;;;4.80;1.85;;;;;;;;;;5010359;28;20469;-60
2022/10/21 13:12:15;;;;;;;9.73;2.45;;;;;;;;;;4994782;28;20061;-64
2022/10/21 13:14:44;;;;;;;6.22;2.15;;;;;;;;;;5008090;28;20057;-66
2022/10/21 13:17:19;;;;;;;7.38;1.95;;;;;;;;;;4984847;28;20395;-63
2022/10/21 13:19:45;;;;;;;7.88;2.10;;;;;;;;;;5004932;28;20065;-57
2022/10/21 13:22:34;;;;;;;10.50;3.28;;;;;;;;;;5009099;28;20070;-54
2022/10/21 13:25:18;;;;;;;15.93;2.30;;;;;;;;;;5010543;28;20066;-54
2022/10/21 13:28:01;;;;;;;10.93;1.92;;;;;;;;;;4994191;28;20372;-56
2022/10/21 13:30:34;;;;;;;;;;;;;;;;;;5001858;28;20042;-48
2022/10/21 13:33:01;;;;;;;5.75;1.70;;;;;;;;;;5009410;28;19929;-60
2022/10/21 13:35:46;;;;;;;6.57;2.00;;;;;;;;;;5008108;28;20478;-57
2022/10/21 13:38:32;;;;;;;5.60;1.90;;;;;;;;;;5007402;28;20046;-53
2022/10/21 13:41:00;;;;;;;6.18;1.77;;;;;;;;;;5008718;28;20042;-52
2022/10/21 13:43:37;;;;;;;4.63;1.60;;;;;;;;;;4976251;28;20089;-59
2022/10/21 13:46:17;;;;;;;6.88;1.83;;;;;;;;;;5004797;28;20091;-56
2022/10/21 13:48:45;;;;;;;4.65;1.75;;;;;;;;;;5007909;28;20068;-53
2022/10/21 13:51:25;;;;;;;8.82;2.15;;;;;;;;;;5008717;28;20056;-56
2022/10/21 13:53:56;;;;;;;4.45;1.60;;;;;;;;;;5009497;28;20453;-56
2022/10/21 13:56:25;;;;;;;8.27;1.75;;;;;;;;;;5009757;28;20038;-55
2022/10/21 13:58:51;;;;;;;4.40;1.50;;;;;;;;;;4999659;28;20557;-59
2022/10/21 14:01:20;;;;;;;5.95;1.73;;;;;;;;;;5009433;28;20057;-56
2022/10/21 14:03:47;;;;;;;4.00;1.40;;;;;;;;;;5010569;28;20045;-54
2022/10/21 14:06:30;;;;;;;8.45;1.58;;;;;;;;;;5007383;28;20044;-55
2022/10/21 14:08:57;;;;;;;8.35;1.77;;;;;;;;;;5009307;28;20042;-56
2022/10/21 14:11:26;;;;;;;5.75;1.88;;;;;;;;;;4998603;28;20046;-49
2022/10/21 14:13:52;;;;;;;5.85;2.03;;;;;;;;;;5007858;28;20038;-50
2022/10/21 14:16:26;;;;;;;13.43;1.92;;;;;;;;;;5009786;28;20485;-55
2022/10/21 14:18:52;;;;;;;6.40;1.95;;;;;;;;;;4997501;28;20096;-50
2022/10/21 14:21:20;;;;;;;6.95;1.60;;;;;;;;;;5009480;28;20040;-53
2022/10/21 14:23:46;;;;;;;6.50;1.50;;;;;;;;;;5008580;28;20078;-50
2022/10/21 14:26:11;;;;;;;6.68;1.40;;;;;;;;;;5009551;28;20057;-49
2022/10/21 14:28:37;;;;;;;8.60;1.70;;;;;;;;;;5007346;28;20030;-53
2022/10/21 14:31:10;;;;;;;5.03;1.42;;;;;;;;;;5009029;28;20053;-59
2022/10/21 14:33:38;;;;;;;7.53;1.50;;;;;;;;;;5001559;28;20056;-54
2022/10/21 14:36:06;;;;;;;7.95;1.65;;;;;;;;;;5008202;28;20029;-50
2022/10/21 14:38:39;;;;;;;7.53;1.80;;;;;;;;;;5010172;28;20073;-54
2022/10/21 14:41:08;;;;;;;6.18;1.67;;;;;;;;;;5010465;28;20383;-50
2022/10/21 14:43:38;;;;;;;5.13;1.40;;;;;;;;;;5009475;28;20120;-50
2022/10/21 14:46:06;;;;;;;6.78;1.70;;;;;;;;;;4997747;28;20057;-51
2022/10/21 14:48:33;;;;;;;4.75;1.40;;;;;;;;;;5006912;28;20045;-54
2022/10/21 14:51:08;;;;;;;7.63;1.25;;;;;;;;;;4988701;28;20694;-50
2022/10/21 14:53:46;;;;;;;5.97;1.50;;;;;;;;;;5005511;28;20520;-52
2022/10/21 14:56:20;;;;;;;5.55;1.30;;;;;;;;;;5011177;28;20025;-59
2022/10/21 14:58:45;;;;;;;;;;;;;;;;;;5004972;28;20582;-60
2022/10/21 15:01:19;;;;;;;4.55;1.75;;;;;;;;;;5028051;28;19917;-57
2022/10/21 15:03:55;;;;;;;4.70;1.70;;;;;;;;;;5002862;28;20065;-57
2022/10/21 15:06:23;;;;;;;12.40;3.72;;;;;;;;;;5007479;28;20046;-57